createdAt,value
2018-10-06T00:02:22.520Z,6.67
2018-10-06T00:04:49.912Z,6.68
2018-10-06T00:07:17.207Z,6.70
2018-10-06T00:09:44.544Z,6.67
2018-10-06T00:12:11.806Z,6.69
2018-10-06T00:14:39.144Z,6.77
2018-10-06T00:17:06.493Z,6.54
2018-10-06T00:19:33.830Z,6.49
2018-10-06T00:22:01.190Z,6.49
2018-10-06T00:24:28.523Z,6.60
2018-10-06T00:26:55.857Z,6.47
2018-10-06T00:29:23.207Z,6.38
2018-10-06T00:31:50.599Z,6.33
2018-10-06T00:34:17.969Z,6.44
2018-10-06T00:36:45.443Z,6.27
2018-10-06T00:39:12.786Z,6.30
2018-10-06T00:41:40.116Z,6.32
2018-10-06T00:44:07.426Z,6.07
2018-10-06T00:46:34.937Z,6.12
2018-10-06T00:49:02.266Z,6.14
2018-10-06T00:51:29.654Z,6.22
2018-10-06T00:53:56.948Z,6.20
2018-10-06T00:56:24.225Z,6.32
2018-10-06T00:58:51.539Z,6.26
2018-10-06T01:01:18.821Z,6.05
2018-10-06T01:03:46.102Z,6.05
2018-10-06T01:06:13.440Z,5.87
2018-10-06T01:08:40.863Z,5.68
2018-10-06T01:11:08.150Z,5.76
2018-10-06T01:13:35.458Z,5.83
2018-10-06T01:16:02.810Z,5.92
2018-10-06T01:18:30.177Z,5.87
2018-10-06T01:20:57.504Z,5.86
2018-10-06T01:23:24.789Z,6.06
2018-10-06T01:25:52.164Z,6.05
2018-10-06T01:28:19.545Z,6.11
2018-10-06T01:30:46.937Z,5.96
2018-10-06T01:33:14.383Z,6.04
2018-10-06T01:35:41.654Z,5.92
2018-10-06T01:38:09.001Z,5.76
2018-10-06T01:40:36.393Z,5.73
2018-10-06T01:43:03.886Z,5.68
2018-10-06T01:45:31.228Z,5.70
2018-10-06T01:47:58.590Z,5.57
2018-10-06T01:50:25.885Z,5.60
2018-10-06T01:52:53.229Z,5.62
2018-10-06T01:55:20.532Z,5.57
2018-10-06T01:57:47.873Z,5.64
2018-10-06T02:00:15.232Z,5.64
2018-10-06T02:02:42.623Z,5.68
2018-10-06T02:05:09.984Z,5.64
2018-10-06T02:07:37.280Z,5.67
2018-10-06T02:10:05.258Z,4.93
2018-10-06T02:12:32.603Z,5.63
2018-10-06T02:14:59.977Z,5.63
2018-10-06T02:17:27.271Z,5.50
2018-10-06T02:19:54.581Z,5.52
2018-10-06T02:22:21.805Z,5.55
2018-10-06T02:24:49.067Z,5.16
2018-10-06T02:27:16.365Z,5.30
2018-10-06T02:29:43.690Z,5.34
2018-10-06T02:32:11.016Z,5.33
2018-10-06T02:34:38.277Z,5.18
2018-10-06T02:37:06.029Z,5.18
2018-10-06T02:39:33.395Z,5.11
2018-10-06T02:42:00.895Z,5.29
2018-10-06T02:44:28.208Z,5.19
2018-10-06T02:46:55.514Z,5.14
2018-10-06T02:49:22.840Z,5.17
2018-10-06T02:51:50.198Z,4.97
2018-10-06T02:54:17.754Z,5.22
2018-10-06T02:56:45.039Z,5.20
2018-10-06T02:59:12.347Z,5.18
2018-10-06T03:01:39.608Z,5.24
2018-10-06T03:04:07.020Z,5.34
2018-10-06T03:06:34.401Z,5.21
2018-10-06T03:09:01.733Z,5.03
2018-10-06T03:11:29.095Z,5.05
2018-10-06T03:13:56.489Z,4.98
2018-10-06T03:16:24.112Z,5.00
2018-10-06T03:18:51.458Z,5.08
2018-10-06T03:21:18.798Z,5.03
2018-10-06T03:23:46.102Z,5.06
2018-10-06T03:26:13.473Z,5.02
2018-10-06T03:28:40.854Z,5.07
2018-10-06T03:31:08.176Z,5.23
2018-10-06T03:33:35.461Z,5.20
2018-10-06T03:36:02.806Z,5.30
2018-10-06T03:38:30.126Z,5.23
2018-10-06T03:40:57.418Z,5.15
2018-10-06T03:43:24.751Z,5.15
2018-10-06T03:45:52.051Z,5.23
2018-10-06T03:48:19.343Z,5.18
2018-10-06T03:50:46.750Z,5.08
2018-10-06T03:53:14.373Z,5.14
2018-10-06T03:55:41.687Z,5.12
2018-10-06T03:58:09.110Z,5.12
2018-10-06T04:00:36.414Z,5.12
2018-10-06T04:03:03.800Z,5.13
2018-10-06T04:05:31.125Z,4.97
2018-10-06T04:07:58.507Z,4.82
2018-10-06T04:10:25.822Z,4.84
2018-10-06T04:12:53.164Z,4.96
2018-10-06T04:15:20.502Z,4.93
2018-10-06T04:17:47.864Z,4.99
2018-10-06T04:20:15.186Z,4.98
2018-10-06T04:22:42.523Z,5.04
2018-10-06T04:25:09.890Z,5.01
2018-10-06T04:27:37.284Z,5.06
2018-10-06T04:30:05.963Z,4.97
2018-10-06T04:32:33.368Z,5.04
2018-10-06T04:35:00.809Z,4.98
2018-10-06T04:37:28.089Z,5.01
2018-10-06T04:39:55.481Z,4.90
2018-10-06T04:42:22.781Z,4.84
2018-10-06T04:44:50.169Z,4.84
2018-10-06T04:47:17.549Z,4.88
2018-10-06T04:49:44.812Z,4.92
2018-10-06T04:52:12.091Z,4.99
2018-10-06T04:54:39.374Z,5.01
2018-10-06T04:57:06.651Z,5.02
2018-10-06T04:59:34.061Z,5.01
2018-10-06T05:02:01.462Z,5.00
2018-10-06T05:04:28.795Z,5.02
2018-10-06T05:06:56.078Z,5.12
2018-10-06T05:09:24.002Z,5.00
2018-10-06T05:11:51.360Z,4.67
2018-10-06T05:14:18.692Z,4.82
2018-10-06T05:16:46.229Z,4.80
2018-10-06T05:19:13.716Z,4.86
2018-10-06T05:21:41.041Z,4.73
2018-10-06T05:24:08.634Z,4.78
2018-10-06T05:26:35.983Z,4.84
2018-10-06T05:29:03.313Z,4.85
2018-10-06T05:31:30.709Z,4.86
2018-10-06T05:33:58.058Z,4.92
2018-10-06T05:36:25.375Z,4.69
2018-10-06T05:38:52.689Z,4.59
2018-10-06T05:41:20.018Z,4.75
2018-10-06T05:43:47.331Z,4.74
2018-10-06T05:46:14.634Z,4.62
2018-10-06T05:48:41.929Z,4.79
2018-10-06T05:51:09.273Z,4.87
2018-10-06T05:53:36.634Z,4.83
2018-10-06T05:56:03.966Z,4.89
2018-10-06T05:58:31.274Z,5.02
2018-10-06T06:00:58.622Z,4.64
2018-10-06T06:03:25.930Z,5.05
2018-10-06T06:05:53.229Z,5.10
2018-10-06T06:08:20.462Z,4.99
2018-10-06T06:10:47.774Z,5.08
2018-10-06T06:13:15.069Z,5.06
2018-10-06T06:15:42.393Z,5.10
2018-10-06T06:18:09.752Z,5.23
2018-10-06T06:20:37.060Z,5.22
2018-10-06T06:23:04.915Z,5.26
2018-10-06T06:25:32.301Z,5.31
2018-10-06T06:27:59.713Z,5.46
2018-10-06T06:30:27.038Z,5.56
2018-10-06T06:32:54.258Z,5.58
2018-10-06T06:35:21.561Z,5.70
2018-10-06T06:37:48.985Z,5.72
2018-10-06T06:40:16.295Z,5.70
2018-10-06T06:42:43.647Z,5.85
2018-10-06T06:45:11.056Z,5.94
2018-10-06T06:47:38.256Z,5.93
2018-10-06T06:50:05.936Z,6.07
2018-10-06T06:52:33.206Z,6.20
2018-10-06T06:55:00.544Z,6.22
2018-10-06T06:57:28.085Z,6.38
2018-10-06T06:59:55.413Z,6.50
2018-10-06T07:02:22.690Z,6.61
2018-10-06T07:04:50.008Z,6.73
2018-10-06T07:07:17.320Z,6.74
2018-10-06T07:09:44.610Z,6.85
2018-10-06T07:12:11.954Z,6.84
2018-10-06T07:14:39.256Z,6.91
2018-10-06T07:17:06.538Z,6.99
2018-10-06T07:19:33.952Z,7.06
2018-10-06T07:22:01.219Z,7.34
2018-10-06T07:24:28.533Z,7.51
2018-10-06T07:26:55.924Z,7.52
2018-10-06T07:29:23.318Z,7.69
2018-10-06T07:31:50.603Z,8.02
2018-10-06T07:34:17.914Z,8.34
2018-10-06T07:36:45.290Z,8.42
2018-10-06T07:39:12.659Z,8.81
2018-10-06T07:44:58.690Z,9.25
2018-10-06T07:47:26.158Z,9.43
2018-10-06T07:49:53.536Z,9.33
2018-10-06T07:52:20.903Z,9.58
2018-10-06T07:54:48.252Z,9.63
2018-10-06T07:57:15.566Z,9.64
2018-10-06T07:59:42.952Z,9.59
2018-10-06T08:02:10.505Z,9.77
2018-10-06T08:04:37.813Z,9.84
2018-10-06T08:07:05.194Z,10.01
2018-10-06T08:09:32.584Z,10.00
2018-10-06T08:12:00.149Z,10.04
2018-10-06T08:14:27.623Z,10.20
2018-10-06T08:16:55.138Z,10.24
2018-10-06T08:19:22.675Z,10.31
2018-10-06T08:21:50.135Z,10.44
2018-10-06T08:24:17.622Z,10.59
2018-10-06T08:26:45.156Z,10.90
2018-10-06T08:29:12.670Z,11.06
2018-10-06T08:31:40.071Z,11.36
2018-10-06T08:34:07.599Z,11.61
2018-10-06T08:36:35.113Z,11.71
2018-10-06T08:39:03.328Z,11.86
2018-10-06T08:41:30.863Z,11.90
2018-10-06T08:43:58.388Z,11.93
2018-10-06T08:46:25.802Z,11.99
2018-10-06T08:48:53.193Z,11.86
2018-10-06T08:51:20.814Z,12.07
2018-10-06T08:53:48.319Z,12.04
2018-10-06T08:56:15.845Z,12.29
2018-10-06T08:58:43.314Z,12.51
2018-10-06T09:01:10.848Z,12.57
2018-10-06T09:03:38.406Z,12.76
2018-10-06T09:06:05.982Z,12.94
2018-10-06T09:08:33.460Z,12.85
2018-10-06T09:11:01.260Z,12.95
2018-10-06T09:13:28.678Z,13.03
2018-10-06T09:15:56.196Z,12.99
2018-10-06T09:18:23.716Z,12.94
2018-10-06T09:20:51.275Z,13.00
2018-10-06T09:23:18.695Z,13.10
2018-10-06T09:25:46.185Z,13.22
2018-10-06T09:28:13.657Z,13.36
2018-10-06T09:30:41.099Z,13.36
2018-10-06T09:33:08.514Z,13.49
2018-10-06T09:35:35.995Z,13.48
2018-10-06T09:38:03.437Z,13.61
2018-10-06T09:40:30.897Z,13.44
2018-10-06T09:42:58.345Z,13.49
2018-10-06T09:45:25.750Z,13.53
2018-10-06T09:47:53.115Z,13.66
2018-10-06T09:50:20.451Z,13.63
2018-10-06T09:52:47.933Z,13.74
2018-10-06T09:55:15.392Z,13.71
2018-10-06T09:57:42.883Z,13.88
2018-10-06T10:00:10.301Z,14.16
2018-10-06T10:02:43.243Z,14.35
2018-10-06T10:05:16.344Z,14.25
2018-10-06T10:07:43.718Z,14.41
2018-10-06T10:10:11.134Z,14.62
2018-10-06T10:12:38.586Z,14.72
2018-10-06T10:15:06.030Z,14.44
2018-10-06T10:17:33.511Z,14.72
2018-10-06T10:20:00.775Z,14.74
2018-10-06T10:22:28.396Z,14.77
2018-10-06T10:24:55.684Z,14.75
2018-10-06T10:27:23.095Z,14.90
2018-10-06T10:29:50.517Z,15.11
2018-10-06T10:32:18.149Z,15.15
2018-10-06T10:34:45.425Z,15.38
2018-10-06T10:37:12.811Z,15.31
2018-10-06T10:39:40.244Z,15.49
2018-10-06T10:42:07.551Z,15.40
2018-10-06T10:44:35.021Z,15.45
2018-10-06T10:47:02.397Z,15.33
2018-10-06T10:49:29.820Z,15.31
2018-10-06T10:51:57.063Z,15.42
2018-10-06T10:54:24.421Z,15.76
2018-10-06T10:56:51.698Z,15.90
2018-10-06T10:59:19.094Z,15.94
2018-10-06T11:01:46.380Z,15.95
2018-10-06T11:04:13.699Z,16.41
2018-10-06T11:06:40.979Z,16.52
2018-10-06T11:09:08.701Z,16.25
2018-10-06T11:11:36.229Z,16.35
2018-10-06T11:14:03.605Z,16.34
2018-10-06T11:16:30.937Z,16.35
2018-10-06T11:18:58.186Z,16.43
2018-10-06T11:21:26.173Z,16.84
2018-10-06T11:23:53.527Z,17.00
2018-10-06T11:26:20.917Z,17.23
2018-10-06T11:28:48.250Z,17.42
2018-10-06T11:31:15.682Z,17.60
2018-10-06T11:33:43.041Z,18.20
2018-10-06T11:36:10.498Z,18.09
2018-10-06T11:38:38.218Z,18.68
2018-10-06T11:41:05.530Z,18.81
2018-10-06T11:43:32.814Z,18.39
2018-10-06T11:46:00.126Z,19.47
2018-10-06T11:48:27.467Z,19.86
2018-10-06T11:50:54.901Z,20.24
2018-10-06T11:53:22.295Z,20.33
2018-10-06T11:55:49.684Z,20.59
2018-10-06T11:58:16.925Z,20.84
2018-10-06T12:00:44.298Z,20.31
2018-10-06T12:03:11.541Z,20.68
2018-10-06T12:05:38.917Z,20.71
2018-10-06T12:08:06.251Z,20.88
2018-10-06T12:10:33.623Z,21.17
2018-10-06T12:13:00.941Z,20.90
2018-10-06T12:15:32.183Z,21.42
2018-10-06T12:17:59.492Z,22.06
2018-10-06T12:20:26.879Z,22.70
2018-10-06T12:22:54.398Z,22.34
2018-10-06T12:25:21.885Z,21.91
2018-10-06T12:27:49.184Z,22.28
2018-10-06T12:30:16.519Z,22.13
2018-10-06T12:32:43.811Z,22.13
2018-10-06T12:35:11.251Z,22.50
2018-10-06T12:37:38.535Z,22.35
2018-10-06T12:40:05.865Z,22.88
2018-10-06T12:42:33.427Z,22.99
2018-10-06T12:45:00.706Z,23.51
2018-10-06T12:47:28.049Z,23.32
2018-10-06T12:49:55.406Z,24.01
2018-10-06T12:52:22.736Z,23.77
2018-10-06T12:54:50.314Z,23.03
2018-10-06T12:57:17.627Z,23.58
2018-10-06T12:59:44.943Z,22.99
2018-10-06T13:02:12.241Z,23.38
2018-10-06T13:04:39.630Z,24.13
2018-10-06T13:07:06.917Z,24.09
2018-10-06T13:09:34.252Z,23.95
2018-10-06T13:12:01.667Z,23.89
2018-10-06T13:14:28.913Z,24.27
2018-10-06T13:16:56.243Z,23.67
2018-10-06T13:19:23.643Z,23.44
2018-10-06T13:21:50.993Z,23.73
2018-10-06T13:24:18.314Z,24.13
2018-10-06T13:26:45.710Z,24.53
2018-10-06T13:29:13.000Z,24.95
2018-10-06T13:31:40.354Z,24.28
2018-10-06T13:34:07.638Z,24.31
2018-10-06T13:36:34.930Z,24.21
2018-10-06T13:39:02.344Z,23.81
2018-10-06T13:41:29.755Z,24.08
2018-10-06T13:43:57.094Z,24.16
2018-10-06T13:46:24.419Z,24.40
2018-10-06T13:48:51.670Z,23.93
2018-10-06T13:51:19.021Z,23.64
2018-10-06T13:53:46.340Z,23.14
2018-10-06T13:56:13.680Z,22.84
2018-10-06T13:58:41.115Z,22.40
2018-10-06T14:01:08.499Z,22.25
2018-10-06T14:03:35.847Z,22.29
2018-10-06T14:06:03.194Z,22.36
2018-10-06T14:08:30.468Z,22.54
2018-10-06T14:10:57.806Z,22.37
2018-10-06T14:13:25.102Z,22.24
2018-10-06T14:15:52.457Z,21.82
2018-10-06T14:18:19.754Z,21.67
2018-10-06T14:20:47.044Z,21.78
2018-10-06T14:23:14.420Z,21.78
2018-10-06T14:25:41.682Z,21.58
2018-10-06T14:28:08.985Z,21.62
2018-10-06T14:30:36.651Z,21.63
2018-10-06T14:33:04.018Z,21.73
2018-10-06T14:35:31.484Z,21.66
2018-10-06T14:37:58.817Z,21.57
2018-10-06T14:40:26.174Z,21.45
2018-10-06T14:42:53.467Z,21.59
2018-10-06T14:45:20.808Z,21.69
2018-10-06T14:47:49.093Z,21.99
2018-10-06T14:50:16.469Z,21.99
2018-10-06T14:52:43.770Z,21.88
2018-10-06T14:55:11.105Z,21.78
2018-10-06T14:57:38.785Z,21.59
2018-10-06T15:00:06.903Z,21.39
2018-10-06T15:02:34.234Z,21.33
2018-10-06T15:05:01.554Z,21.44
2018-10-06T15:07:28.888Z,21.26
2018-10-06T15:09:56.158Z,21.13
2018-10-06T15:12:23.522Z,21.08
2018-10-06T15:14:50.864Z,20.75
2018-10-06T15:17:18.240Z,20.78
2018-10-06T15:19:45.647Z,20.75
2018-10-06T15:22:12.954Z,20.62
2018-10-06T15:24:40.803Z,20.35
2018-10-06T15:27:08.520Z,20.09
2018-10-06T15:29:36.260Z,19.77
2018-10-06T15:32:03.892Z,19.71
2018-10-06T15:34:31.579Z,19.66
2018-10-06T15:36:59.217Z,18.98
2018-10-06T15:39:26.896Z,19.43
2018-10-06T15:41:54.501Z,19.34
2018-10-06T15:44:22.107Z,19.22
2018-10-06T15:46:49.720Z,19.16
2018-10-06T15:49:17.203Z,18.94
2018-10-06T15:51:44.814Z,18.93
2018-10-06T15:54:12.269Z,18.88
2018-10-06T15:56:39.882Z,18.75
2018-10-06T15:59:07.484Z,18.66
2018-10-06T16:01:34.977Z,18.72
2018-10-06T16:04:02.559Z,18.74
2018-10-06T16:06:30.112Z,18.77
2018-10-06T16:08:57.715Z,18.76
2018-10-06T16:11:25.318Z,18.85
2018-10-06T16:13:52.833Z,18.79
2018-10-06T16:16:20.424Z,18.95
2018-10-06T16:18:47.988Z,18.85
2018-10-06T16:21:15.525Z,18.67
2018-10-06T16:23:43.112Z,18.66
2018-10-06T16:26:10.782Z,18.47
2018-10-06T16:28:38.348Z,18.38
2018-10-06T16:31:06.334Z,18.28
2018-10-06T16:33:33.868Z,18.15
2018-10-06T16:36:01.393Z,18.10
2018-10-06T16:38:28.924Z,17.89
2018-10-06T16:40:56.371Z,17.65
2018-10-06T16:43:23.993Z,17.47
2018-10-06T16:45:51.642Z,17.39
2018-10-06T16:48:19.150Z,17.37
2018-10-06T16:50:46.677Z,16.73
2018-10-06T16:53:14.170Z,15.53
2018-10-06T16:55:41.676Z,16.80
2018-10-06T16:58:09.145Z,16.83
2018-10-06T17:00:36.667Z,16.80
2018-10-06T17:03:04.155Z,16.84
2018-10-06T17:05:31.612Z,16.88
2018-10-06T17:07:59.122Z,16.77
2018-10-06T17:10:26.582Z,16.76
2018-10-06T17:12:54.132Z,16.71
2018-10-06T17:15:21.556Z,16.73
2018-10-06T17:17:49.084Z,16.63
2018-10-06T17:20:16.713Z,16.45
2018-10-06T17:22:44.293Z,16.40
2018-10-06T17:25:11.867Z,16.33
2018-10-06T17:27:39.533Z,16.34
2018-10-06T17:30:07.468Z,16.36
2018-10-06T17:32:35.028Z,16.42
2018-10-06T17:35:02.715Z,16.39
2018-10-06T17:37:30.246Z,16.38
2018-10-06T17:39:57.849Z,16.42
2018-10-06T17:42:25.533Z,16.36
2018-10-06T17:44:53.127Z,16.41
2018-10-06T17:47:20.607Z,16.49
2018-10-06T17:49:48.204Z,16.56
2018-10-06T17:52:15.756Z,16.54
2018-10-06T17:54:43.349Z,16.51
2018-10-06T17:57:10.909Z,16.26
2018-10-06T17:59:38.390Z,16.15
2018-10-06T18:02:06.082Z,16.13
2018-10-06T18:04:33.701Z,16.09
2018-10-06T18:07:01.285Z,16.00
2018-10-06T18:09:28.829Z,15.96
2018-10-06T18:11:56.359Z,15.85
2018-10-06T18:14:24.054Z,15.81
2018-10-06T18:16:51.543Z,15.79
2018-10-06T18:19:18.966Z,15.74
2018-10-06T18:21:46.455Z,15.65
2018-10-06T18:24:13.915Z,15.68
2018-10-06T18:26:41.546Z,15.65
2018-10-06T18:29:09.180Z,15.55
2018-10-06T18:31:36.655Z,15.47
2018-10-06T18:34:04.227Z,15.45
2018-10-06T18:36:32.045Z,15.42
2018-10-06T18:38:59.375Z,15.38
2018-10-06T18:41:26.882Z,15.36
2018-10-06T18:43:54.476Z,15.38
2018-10-06T18:46:21.950Z,15.36
2018-10-06T18:48:49.465Z,15.26
2018-10-06T18:51:16.992Z,15.11
2018-10-06T18:53:44.547Z,14.88
2018-10-06T18:56:12.033Z,14.74
2018-10-06T18:58:39.684Z,14.69
2018-10-06T19:01:07.264Z,14.61
2018-10-06T19:03:34.828Z,14.59
2018-10-06T19:06:02.397Z,14.49
2018-10-06T19:08:29.999Z,14.44
2018-10-06T19:10:57.568Z,14.30
2018-10-06T19:13:25.166Z,14.28
2018-10-06T19:15:52.698Z,14.29
2018-10-06T19:18:20.157Z,14.30
2018-10-06T19:20:47.615Z,14.24
2018-10-06T19:23:15.146Z,14.13
2018-10-06T19:25:42.694Z,14.14
2018-10-06T19:28:10.098Z,14.07
2018-10-06T19:30:37.616Z,14.11
2018-10-06T19:33:05.265Z,14.05
2018-10-06T19:35:32.732Z,14.08
2018-10-06T19:38:00.235Z,14.12
2018-10-06T19:40:27.653Z,14.11
2018-10-06T19:42:55.407Z,14.02
2018-10-06T19:45:23.042Z,14.04
2018-10-06T19:47:50.540Z,13.97
2018-10-06T19:50:18.064Z,13.94
2018-10-06T19:52:45.794Z,13.94
2018-10-06T19:55:13.394Z,13.98
2018-10-06T19:57:41.743Z,13.93
2018-10-06T20:00:08.899Z,14.01
2018-10-06T20:02:36.468Z,14.02
2018-10-06T20:05:04.394Z,13.94
2018-10-06T20:07:32.004Z,13.71
2018-10-06T20:09:59.586Z,13.54
2018-10-06T20:12:27.208Z,13.59
2018-10-06T20:14:54.873Z,13.69
2018-10-06T20:17:22.574Z,13.68
2018-10-06T20:19:50.174Z,13.71
2018-10-06T20:22:17.737Z,13.57
2018-10-06T20:24:45.317Z,13.62
2018-10-06T20:27:12.989Z,13.61
2018-10-06T20:29:40.675Z,13.59
2018-10-06T20:32:08.334Z,13.58
2018-10-06T20:34:36.024Z,13.63
2018-10-06T20:37:03.426Z,13.40
2018-10-06T20:39:30.797Z,13.29
2018-10-06T20:41:58.325Z,13.39
2018-10-06T20:44:25.774Z,13.43
2018-10-06T20:46:53.154Z,13.34
2018-10-06T20:49:20.495Z,13.37
2018-10-06T20:51:47.852Z,13.23
2018-10-06T20:54:15.185Z,13.21
2018-10-06T20:56:42.554Z,12.95
2018-10-06T20:59:09.891Z,13.03
2018-10-06T21:01:37.439Z,13.11
2018-10-06T21:04:04.793Z,13.15
2018-10-06T21:06:32.154Z,13.07
2018-10-06T21:08:59.517Z,13.10
2018-10-06T21:11:26.848Z,13.00
2018-10-06T21:13:54.216Z,12.93
2018-10-06T21:16:21.530Z,12.89
2018-10-06T21:18:48.860Z,12.83
2018-10-06T21:21:16.214Z,12.82
2018-10-06T21:23:43.632Z,12.81
2018-10-06T21:26:11.042Z,12.81
2018-10-06T21:28:38.438Z,12.79
2018-10-06T21:31:05.711Z,12.90
2018-10-06T21:33:33.046Z,12.81
2018-10-06T21:36:00.843Z,12.70
2018-10-06T21:38:28.566Z,12.72
2018-10-06T21:40:56.655Z,12.77
2018-10-06T21:43:23.956Z,12.73
2018-10-06T21:45:51.298Z,12.72
2018-10-06T21:48:18.612Z,12.61
2018-10-06T21:50:46.160Z,12.54
2018-10-06T21:53:13.464Z,12.53
2018-10-06T21:55:40.792Z,12.77
2018-10-06T21:58:08.236Z,12.88
2018-10-06T22:00:35.706Z,12.77
2018-10-06T22:03:03.112Z,12.63
2018-10-06T22:05:30.517Z,12.25
2018-10-06T22:07:57.889Z,12.27
2018-10-06T22:10:25.283Z,12.21
2018-10-06T22:12:55.038Z,12.28
2018-10-06T22:15:22.608Z,12.26
2018-10-06T22:17:49.900Z,12.20
2018-10-06T22:20:17.266Z,12.11
2018-10-06T22:22:44.621Z,12.16
2018-10-06T22:25:11.989Z,12.19
2018-10-06T22:27:39.352Z,12.08
2018-10-06T22:30:07.320Z,12.13
2018-10-06T22:32:34.754Z,12.01
2018-10-06T22:35:02.134Z,11.91
2018-10-06T22:37:29.513Z,12.17
2018-10-06T22:39:57.208Z,12.30
2018-10-06T22:42:24.743Z,12.14
2018-10-06T22:44:52.525Z,11.92
2018-10-06T22:47:20.187Z,11.74
2018-10-06T22:49:47.791Z,12.01
2018-10-06T22:52:15.369Z,11.82
2018-10-06T22:54:42.851Z,11.78
2018-10-06T22:57:10.462Z,11.74
2018-10-06T22:59:38.188Z,11.48
2018-10-06T23:02:05.992Z,11.43
2018-10-06T23:04:33.727Z,11.31
2018-10-06T23:07:01.414Z,11.31
2018-10-06T23:09:29.038Z,11.34
2018-10-06T23:11:56.642Z,11.41
2018-10-06T23:14:24.346Z,11.43
2018-10-06T23:16:52.095Z,11.44
2018-10-06T23:19:19.474Z,11.44
2018-10-06T23:21:46.821Z,11.41
2018-10-06T23:24:14.237Z,11.43
2018-10-06T23:26:41.585Z,11.27
2018-10-06T23:29:08.902Z,11.28
2018-10-06T23:31:36.269Z,11.34
2018-10-06T23:34:03.609Z,11.35
2018-10-06T23:36:30.969Z,11.32
2018-10-06T23:38:58.363Z,11.02
2018-10-06T23:41:25.728Z,10.85
2018-10-06T23:43:53.012Z,10.85
2018-10-06T23:46:20.326Z,10.78
2018-10-06T23:48:47.681Z,10.48
2018-10-06T23:51:16.090Z,10.45
2018-10-06T23:53:43.433Z,10.54
2018-10-06T23:56:10.954Z,10.71
2018-10-06T23:58:38.318Z,10.63
